createdAt,value
2022-09-25T00:01:15.581Z,26.73
2022-09-25T00:03:42.964Z,25.85
2022-09-25T00:06:13.916Z,24.63
2022-09-25T00:08:41.539Z,25.88
2022-09-25T00:11:11.320Z,25.35
2022-09-25T00:13:40.690Z,25.52
2022-09-25T00:16:10.681Z,29.55
2022-09-25T00:18:56.196Z,25.45
2022-09-25T00:21:23.571Z,28.20
2022-09-25T00:23:50.968Z,27.08
2022-09-25T00:26:18.270Z,26.80
2022-09-25T00:28:45.479Z,23.80
2022-09-25T00:31:20.374Z,25.23
2022-09-25T00:33:47.583Z,29.95
2022-09-25T00:36:14.694Z,25.80
2022-09-25T00:38:41.891Z,26.75
2022-09-25T00:41:09.132Z,24.42
2022-09-25T00:43:41.978Z,26.92
2022-09-25T00:46:15.213Z,25.83
2022-09-25T00:48:53.835Z,26.13
2022-09-25T00:51:29.869Z,31.20
2022-09-25T00:54:04.868Z,25.20
2022-09-25T00:56:39.508Z,27.42
2022-09-25T00:59:12.012Z,28.45
2022-09-25T01:01:39.377Z,29.85
2022-09-25T01:04:07.782Z,25.98
2022-09-25T01:06:36.318Z,28.48
2022-09-25T01:09:03.401Z,25.17
2022-09-25T01:11:31.447Z,24.77
2022-09-25T01:14:02.720Z,23.83
2022-09-25T01:16:44.903Z,26.30
2022-09-25T01:19:43.482Z,29.88
2022-09-25T01:22:36.868Z,31.85
2022-09-25T01:25:37.164Z,27.58
2022-09-25T01:28:32.428Z,26.73
2022-09-25T01:31:04.835Z,29.85
2022-09-25T01:33:37.505Z,28.30
2022-09-25T01:36:29.670Z,28.60
2022-09-25T01:39:36.009Z,26.50
2022-09-25T01:42:17.497Z,29.38
2022-09-25T01:44:52.226Z,26.50
2022-09-25T01:47:23.350Z,26.90
2022-09-25T01:49:56.128Z,29.77
2022-09-25T01:52:28.657Z,33.05
2022-09-25T01:55:08.022Z,31.20
2022-09-25T01:57:41.751Z,30.55
2022-09-25T02:00:12.848Z,29.92
2022-09-25T02:03:09.725Z,28.63
2022-09-25T02:05:53.303Z,29.17
2022-09-25T02:08:25.157Z,26.98
2022-09-25T02:10:58.483Z,26.13
2022-09-25T02:13:43.616Z,24.52
2022-09-25T02:16:17.093Z,30.20
2022-09-25T02:19:03.731Z,27.15
2022-09-25T02:21:43.067Z,28.23
2022-09-25T02:24:37.480Z,28.83
2022-09-25T02:27:05.127Z,30.15
2022-09-25T02:29:32.741Z,31.88
2022-09-25T02:32:05.286Z,32.25
2022-09-25T02:34:33.530Z,28.52
2022-09-25T02:37:00.571Z,32.15
2022-09-25T02:39:30.547Z,24.27
2022-09-25T02:42:06.699Z,27.67
2022-09-25T02:44:55.829Z,26.95
2022-09-25T02:47:33.447Z,24.35
2022-09-25T02:50:16.372Z,27.70
2022-09-25T02:53:21.977Z,25.13
2022-09-25T02:55:51.953Z,28.80
2022-09-25T02:58:21.762Z,25.83
2022-09-25T03:00:52.613Z,26.75
2022-09-25T03:03:21.416Z,28.00
2022-09-25T03:05:51.880Z,25.92
2022-09-25T03:08:39.629Z,26.75
2022-09-25T03:11:09.260Z,28.38
2022-09-25T03:13:37.658Z,30.38
2022-09-25T03:16:07.184Z,26.60
2022-09-25T03:18:34.736Z,36.13
2022-09-25T03:21:04.517Z,30.38
2022-09-25T03:23:35.326Z,25.98
2022-09-25T03:26:02.620Z,29.25
2022-09-25T03:28:29.908Z,25.95
2022-09-25T03:31:08.408Z,29.85
2022-09-25T03:33:38.539Z,24.95
2022-09-25T03:36:09.916Z,28.35
2022-09-25T03:38:37.739Z,31.00
2022-09-25T03:41:09.698Z,28.00
2022-09-25T03:43:38.543Z,29.08
2022-09-25T03:46:07.940Z,27.75
2022-09-25T03:48:36.669Z,28.27
2022-09-25T03:51:04.722Z,30.80
2022-09-25T03:53:33.924Z,30.70
2022-09-25T03:56:02.576Z,26.45
2022-09-25T03:58:29.895Z,28.88
2022-09-25T04:00:58.189Z,28.35
2022-09-25T04:03:29.456Z,29.38
2022-09-25T04:05:58.409Z,28.90
2022-09-25T04:08:27.343Z,27.45
2022-09-25T04:10:56.556Z,29.25
2022-09-25T04:13:24.850Z,25.48
2022-09-25T04:15:52.125Z,25.48
2022-09-25T04:18:19.820Z,26.05
2022-09-25T04:20:47.020Z,30.42
2022-09-25T04:23:14.391Z,34.80
2022-09-25T04:25:41.840Z,33.20
2022-09-25T04:28:10.496Z,36.13
2022-09-25T04:30:37.862Z,27.33
2022-09-25T04:33:23.974Z,30.05
2022-09-25T04:35:51.179Z,33.40
2022-09-25T04:38:18.384Z,32.53
2022-09-25T04:40:46.345Z,28.45
2022-09-25T04:43:13.677Z,32.28
2022-09-25T04:45:40.977Z,33.40
2022-09-25T04:48:08.071Z,31.55
2022-09-25T04:50:35.483Z,29.98
2022-09-25T04:53:03.242Z,28.27
2022-09-25T04:55:30.881Z,29.25
2022-09-25T04:58:00.975Z,29.27
2022-09-25T05:00:30.909Z,28.17
2022-09-25T05:02:59.172Z,28.98
2022-09-25T05:05:30.928Z,29.27
2022-09-25T05:07:59.821Z,29.98
2022-09-25T05:10:30.065Z,31.13
2022-09-25T05:15:26.584Z,33.33
2022-09-25T05:18:06.209Z,32.75
2022-09-25T05:20:36.036Z,32.10
2022-09-25T05:23:04.698Z,31.27
2022-09-25T05:25:32.546Z,34.70
2022-09-25T05:28:01.117Z,32.50
2022-09-25T05:30:32.506Z,26.73
2022-09-25T05:32:59.646Z,27.58
2022-09-25T05:35:32.475Z,31.00
2022-09-25T05:37:59.996Z,29.77
2022-09-25T05:40:27.705Z,31.83
2022-09-25T05:42:58.617Z,29.23
2022-09-25T05:45:26.182Z,28.38
2022-09-25T05:48:08.016Z,27.55
2022-09-25T05:50:35.542Z,25.95
2022-09-25T05:53:05.673Z,27.08
2022-09-25T05:55:32.944Z,29.42
2022-09-25T05:58:02.212Z,33.33
2022-09-25T06:00:29.345Z,27.15
2022-09-25T06:02:56.634Z,28.63
2022-09-25T06:05:23.794Z,30.98
2022-09-25T06:07:55.322Z,32.20
2022-09-25T06:10:23.307Z,30.00
2022-09-25T06:12:50.502Z,29.30
2022-09-25T06:15:17.706Z,34.00
2022-09-25T06:17:45.009Z,32.95
2022-09-25T06:20:16.109Z,29.58
2022-09-25T06:22:44.801Z,29.13
2022-09-25T06:25:12.483Z,28.63
2022-09-25T06:27:40.129Z,31.48
2022-09-25T06:30:07.863Z,28.05
2022-09-25T06:32:35.143Z,33.03
2022-09-25T06:35:02.579Z,31.90
2022-09-25T06:37:29.955Z,30.70
2022-09-25T06:39:57.224Z,33.45
2022-09-25T06:42:24.340Z,31.83
2022-09-25T06:44:51.549Z,32.13
2022-09-25T06:47:22.505Z,35.22
2022-09-25T06:49:52.499Z,34.10
2022-09-25T06:52:20.496Z,30.98
2022-09-25T06:54:47.789Z,32.20
2022-09-25T06:57:15.426Z,38.70
2022-09-25T06:59:42.719Z,38.65
2022-09-25T07:02:28.919Z,38.78
2022-09-25T07:04:56.272Z,35.15
2022-09-25T07:07:24.421Z,33.53
2022-09-25T07:09:51.467Z,37.45
2022-09-25T07:12:18.622Z,35.60
2022-09-25T07:14:47.199Z,38.03
2022-09-25T07:17:15.130Z,35.72
2022-09-25T07:19:42.384Z,34.28
2022-09-25T07:22:11.217Z,34.53
2022-09-25T07:24:39.384Z,32.80
2022-09-25T07:27:06.570Z,37.17
2022-09-25T07:29:35.969Z,35.88
2022-09-25T07:32:04.895Z,38.55
2022-09-25T07:34:34.676Z,37.50
2022-09-25T07:37:02.266Z,37.85
2022-09-25T07:39:29.541Z,37.97
2022-09-25T07:41:56.826Z,37.67
2022-09-25T07:44:28.919Z,40.25
2022-09-25T07:46:59.801Z,34.53
2022-09-25T07:49:27.866Z,35.22
2022-09-25T07:51:54.953Z,36.80
2022-09-25T07:54:22.272Z,36.00
2022-09-25T07:56:49.903Z,39.75
2022-09-25T07:59:17.154Z,36.45
2022-09-25T08:01:48.447Z,41.65
2022-09-25T08:04:18.586Z,33.85
2022-09-25T08:06:45.687Z,30.23
2022-09-25T08:09:13.024Z,31.67
2022-09-25T08:11:40.163Z,34.30
2022-09-25T08:14:07.569Z,33.75
2022-09-25T08:16:34.734Z,30.92
2022-09-25T08:19:18.012Z,34.88
2022-09-25T08:24:12.848Z,34.75
2022-09-25T08:26:40.074Z,37.47
2022-09-25T08:29:09.549Z,35.67
2022-09-25T08:31:37.130Z,35.17
2022-09-25T08:34:28.078Z,37.28
2022-09-25T08:36:51.542Z,35.03
2022-09-25T08:39:18.853Z,36.85
2022-09-25T08:41:50.158Z,34.70
2022-09-25T08:44:37.640Z,33.92
2022-09-25T08:47:40.434Z,33.25
2022-09-25T08:50:14.865Z,39.90
2022-09-25T08:52:46.353Z,43.85
2022-09-25T08:55:48.524Z,35.20
2022-09-25T08:58:24.879Z,33.63
2022-09-25T09:01:00.235Z,34.33
2022-09-25T09:03:30.556Z,30.38
2022-09-25T09:06:02.892Z,34.03
2022-09-25T09:08:33.906Z,32.33
2022-09-25T09:11:11.294Z,32.22
2022-09-25T09:13:51.629Z,34.05
2022-09-25T09:16:27.538Z,32.33
2022-09-25T09:18:56.139Z,32.45
2022-09-25T09:21:45.311Z,33.00
2022-09-25T09:24:19.122Z,38.53
2022-09-25T09:27:10.740Z,34.90
2022-09-25T09:29:59.360Z,28.60
2022-09-25T09:32:41.829Z,35.08
2022-09-25T09:35:47.026Z,34.55
2022-09-25T09:38:23.460Z,27.80
2022-09-25T09:41:01.291Z,29.63
2022-09-25T09:43:57.372Z,30.40
2022-09-25T09:46:35.767Z,32.00
2022-09-25T09:49:40.032Z,36.88
2022-09-25T09:52:11.874Z,32.75
2022-09-25T09:54:43.267Z,31.83
2022-09-25T09:57:23.226Z,35.40
2022-09-25T10:00:05.362Z,30.83
2022-09-25T10:02:43.484Z,32.72
2022-09-25T10:05:30.587Z,31.50
2022-09-25T10:07:57.989Z,29.70
2022-09-25T10:10:33.979Z,27.05
2022-09-25T10:13:06.743Z,28.15
2022-09-25T10:15:42.961Z,26.30
2022-09-25T10:18:11.429Z,26.60
2022-09-25T10:21:04.227Z,30.88
2022-09-25T10:23:46.460Z,29.10
2022-09-25T10:26:52.029Z,26.75
2022-09-25T10:29:21.882Z,27.02
2022-09-25T10:31:59.159Z,22.17
2022-09-25T10:34:29.824Z,25.30
2022-09-25T10:36:57.227Z,22.08
2022-09-25T10:39:44.626Z,23.88
2022-09-25T10:42:37.537Z,24.10
2022-09-25T10:45:22.930Z,24.17
2022-09-25T10:48:09.896Z,23.08
2022-09-25T10:50:37.427Z,23.05
2022-09-25T10:53:05.813Z,28.52
2022-09-25T10:55:46.587Z,31.27
2022-09-25T10:58:21.920Z,26.95
2022-09-25T11:00:52.196Z,19.95
2022-09-25T11:03:25.513Z,17.83
2022-09-25T11:06:00.483Z,17.88
2022-09-25T11:08:32.619Z,20.73
2022-09-25T11:11:01.757Z,21.88
2022-09-25T11:13:37.426Z,24.88
2022-09-25T11:16:10.557Z,24.92
2022-09-25T11:18:51.872Z,21.58
2022-09-25T11:21:30.873Z,21.33
2022-09-25T11:24:20.541Z,23.25
2022-09-25T11:27:11.756Z,22.85
2022-09-25T11:30:06.731Z,22.88
2022-09-25T11:32:52.585Z,21.77
2022-09-25T11:35:41.210Z,25.13
2022-09-25T11:39:07.729Z,21.75
2022-09-25T11:41:44.058Z,26.30
2022-09-25T11:44:32.276Z,23.90
2022-09-25T11:47:05.706Z,24.83
2022-09-25T11:49:36.657Z,21.50
2022-09-25T11:52:42.935Z,20.88
2022-09-25T11:55:15.925Z,21.05
2022-09-25T11:58:02.842Z,21.63
2022-09-25T12:00:29.875Z,21.02
2022-09-25T12:03:04.180Z,21.80
2022-09-25T12:05:43.044Z,21.35
2022-09-25T12:08:19.692Z,20.38
2022-09-25T12:11:04.776Z,19.23
2022-09-25T12:13:50.791Z,17.00
2022-09-25T12:16:33.404Z,16.40
2022-09-25T12:19:24.836Z,17.10
2022-09-25T12:22:12.944Z,18.83
2022-09-25T12:24:55.297Z,14.45
2022-09-25T12:27:42.177Z,13.75
2022-09-25T12:30:24.144Z,13.23
2022-09-25T12:33:07.278Z,12.70
2022-09-25T12:35:39.233Z,11.73
2022-09-25T12:38:11.183Z,11.50
2022-09-25T12:41:06.277Z,9.73
2022-09-25T12:43:53.262Z,10.73
2022-09-25T12:46:20.525Z,11.10
2022-09-25T12:49:16.594Z,12.18
2022-09-25T12:51:53.024Z,9.88
2022-09-25T12:55:01.270Z,11.55
2022-09-25T12:57:38.674Z,11.70
2022-09-25T13:00:24.334Z,9.85
2022-09-25T13:03:14.521Z,9.98
2022-09-25T13:05:53.389Z,12.25
2022-09-25T13:08:27.824Z,10.95
2022-09-25T13:11:04.443Z,9.90
2022-09-25T13:13:40.283Z,11.68
2022-09-25T13:16:07.487Z,11.88
2022-09-25T13:18:36.194Z,11.65
2022-09-25T13:21:06.185Z,11.20
2022-09-25T13:23:40.819Z,12.38
2022-09-25T13:26:14.661Z,12.13
2022-09-25T13:29:07.794Z,11.82
2022-09-25T13:31:37.275Z,12.85
2022-09-25T13:34:12.571Z,11.90
2022-09-25T13:36:55.701Z,11.88
2022-09-25T13:39:44.084Z,11.27
2022-09-25T13:42:23.490Z,13.63
2022-09-25T13:44:52.736Z,12.45
2022-09-25T13:47:25.558Z,10.98
2022-09-25T13:50:04.550Z,11.93
2022-09-25T13:52:41.017Z,14.20
2022-09-25T13:55:14.161Z,10.52
2022-09-25T13:57:56.428Z,12.25
2022-09-25T14:00:24.017Z,12.75
2022-09-25T14:02:51.437Z,13.75
2022-09-25T14:05:22.182Z,13.30
2022-09-25T14:07:55.813Z,13.75
2022-09-25T14:10:24.076Z,11.88
2022-09-25T14:12:52.019Z,10.70
2022-09-25T14:15:40.473Z,10.45
2022-09-25T14:18:16.884Z,11.77
2022-09-25T14:20:50.714Z,11.68
2022-09-25T14:23:20.675Z,11.88
2022-09-25T14:26:07.595Z,9.82
2022-09-25T14:28:45.342Z,11.32
2022-09-25T14:31:33.291Z,10.05
2022-09-25T14:34:37.995Z,10.88
2022-09-25T14:37:11.456Z,10.30
2022-09-25T14:40:04.022Z,9.63
2022-09-25T14:42:51.510Z,11.55
2022-09-25T14:45:49.521Z,10.02
2022-09-25T14:48:26.947Z,7.20
2022-09-25T14:51:01.748Z,8.32
2022-09-25T14:53:33.635Z,8.45
2022-09-25T14:56:03.125Z,7.38
2022-09-25T14:58:33.072Z,7.50
2022-09-25T15:01:14.005Z,8.35
2022-09-25T15:03:47.040Z,9.73
2022-09-25T15:06:24.938Z,6.80
2022-09-25T15:08:53.070Z,6.10
2022-09-25T15:11:21.961Z,6.28
2022-09-25T15:13:49.289Z,8.05
2022-09-25T15:16:44.043Z,6.55
2022-09-25T15:19:25.888Z,5.53
2022-09-25T15:21:54.260Z,5.95
2022-09-25T15:24:27.912Z,7.15
2022-09-25T15:27:06.408Z,6.90
2022-09-25T15:29:38.351Z,7.97
2022-09-25T15:32:06.780Z,10.30
2022-09-25T15:34:34.259Z,6.90
2022-09-25T15:37:17.601Z,5.65
2022-09-25T15:39:45.141Z,6.32
2022-09-25T15:42:14.211Z,6.07
2022-09-25T15:44:42.193Z,5.68
2022-09-25T15:47:34.830Z,5.80
2022-09-25T15:50:03.817Z,5.82
2022-09-25T15:52:35.188Z,7.68
2022-09-25T15:55:06.795Z,6.80
2022-09-25T15:57:34.310Z,8.77
2022-09-25T16:00:26.544Z,13.43
2022-09-25T16:03:44.673Z,8.98
2022-09-25T16:06:16.990Z,9.82
2022-09-25T16:08:44.877Z,8.73
2022-09-25T16:11:22.938Z,6.80
2022-09-25T16:13:54.035Z,7.28
2022-09-25T16:16:23.537Z,10.60
2022-09-25T16:18:54.145Z,11.77
2022-09-25T16:21:24.484Z,8.00
2022-09-25T16:23:56.227Z,7.63
2022-09-25T16:26:26.551Z,11.63
2022-09-25T16:29:03.387Z,10.93
2022-09-25T16:31:31.420Z,7.85
2022-09-25T16:34:00.684Z,9.02
2022-09-25T16:36:37.310Z,9.05
2022-09-25T16:39:10.114Z,7.07
2022-09-25T16:41:39.480Z,7.43
2022-09-25T16:44:22.067Z,9.00
2022-09-25T16:46:52.468Z,8.13
2022-09-25T16:49:22.667Z,10.80
2022-09-25T16:51:52.547Z,9.90
2022-09-25T16:54:21.702Z,8.05
2022-09-25T16:56:49.571Z,9.02
2022-09-25T16:59:19.686Z,12.07
2022-09-25T17:01:48.347Z,8.52
2022-09-25T17:04:16.147Z,8.10
2022-09-25T17:06:46.010Z,9.23
2022-09-25T17:09:16.226Z,7.45
2022-09-25T17:11:45.871Z,9.60
2022-09-25T17:14:24.553Z,8.43
2022-09-25T17:16:53.278Z,9.68
2022-09-25T17:19:21.549Z,10.70
2022-09-25T17:21:51.568Z,9.25
2022-09-25T17:24:24.198Z,7.32
2022-09-25T17:26:54.876Z,9.40
2022-09-25T17:29:22.875Z,9.98
2022-09-25T17:31:49.979Z,10.25
2022-09-25T17:34:28.755Z,13.32
2022-09-25T17:36:56.753Z,11.52
2022-09-25T17:39:24.314Z,14.02
2022-09-25T17:41:51.759Z,12.32
2022-09-25T17:44:23.071Z,11.25
2022-09-25T17:46:52.015Z,16.42
2022-09-25T17:49:19.502Z,9.82
2022-09-25T17:51:47.170Z,12.73
2022-09-25T17:54:14.378Z,12.90
2022-09-25T17:56:42.796Z,10.77
2022-09-25T17:59:10.357Z,10.90
2022-09-25T18:01:39.740Z,14.95
2022-09-25T18:04:26.071Z,15.55
2022-09-25T18:06:53.377Z,20.65
2022-09-25T18:09:20.834Z,17.73
2022-09-25T18:11:48.274Z,15.93
2022-09-25T18:14:16.574Z,18.10
2022-09-25T18:16:44.956Z,18.52
2022-09-25T18:19:38.792Z,18.80
2022-09-25T18:22:18.356Z,23.90
2022-09-25T18:24:46.915Z,20.57
2022-09-25T18:27:15.216Z,17.42
2022-09-25T18:29:44.763Z,16.25
2022-09-25T18:32:11.980Z,15.73
2022-09-25T18:34:39.343Z,14.23
2022-09-25T18:37:06.556Z,11.93
2022-09-25T18:39:34.582Z,13.57
2022-09-25T18:42:01.764Z,13.73
2022-09-25T18:44:29.231Z,13.25
2022-09-25T18:46:56.378Z,12.68
2022-09-25T18:49:25.144Z,10.68
2022-09-25T18:51:52.297Z,9.88
2022-09-25T18:54:20.636Z,9.93
2022-09-25T18:56:47.810Z,9.55
2022-09-25T18:59:15.516Z,10.70
2022-09-25T19:01:42.775Z,10.20
2022-09-25T19:04:15.873Z,10.40
2022-09-25T19:06:42.972Z,9.77
2022-09-25T19:09:15.468Z,9.65
2022-09-25T19:11:44.163Z,10.45
2022-09-25T19:14:15.060Z,9.48
2022-09-25T19:16:42.667Z,8.75
2022-09-25T19:19:09.972Z,11.23
2022-09-25T19:21:37.062Z,10.70
2022-09-25T19:24:04.879Z,10.40
2022-09-25T19:26:32.126Z,9.05
2022-09-25T19:29:00.668Z,9.05
2022-09-25T19:31:29.192Z,8.90
2022-09-25T19:33:56.754Z,10.13
2022-09-25T19:36:26.949Z,12.02
2022-09-25T19:38:54.788Z,11.93
2022-09-25T19:41:26.576Z,12.77
2022-09-25T19:43:57.316Z,15.43
2022-09-25T19:46:25.990Z,15.70
2022-09-25T19:48:53.204Z,12.43
2022-09-25T19:51:22.723Z,20.17
2022-09-25T19:53:50.781Z,19.43
2022-09-25T19:56:19.416Z,16.05
2022-09-25T19:58:51.244Z,21.05
2022-09-25T20:01:27.695Z,17.17
2022-09-25T20:03:58.695Z,16.13
2022-09-25T20:06:27.158Z,15.90
2022-09-25T20:09:03.788Z,16.70
2022-09-25T20:11:32.679Z,18.52
2022-09-25T20:14:02.261Z,22.95
2022-09-25T20:16:30.421Z,18.83
2022-09-25T20:19:03.334Z,23.60
2022-09-25T20:21:34.545Z,22.13
2022-09-25T20:24:04.107Z,20.20
2022-09-25T20:26:32.158Z,21.57
2022-09-25T20:29:01.868Z,21.42
2022-09-25T20:31:32.659Z,19.98
2022-09-25T20:33:59.993Z,20.00
2022-09-25T20:36:27.667Z,19.33
2022-09-25T20:38:56.255Z,18.52
2022-09-25T20:41:25.476Z,19.92
2022-09-25T20:43:54.870Z,22.58
2022-09-25T20:46:24.150Z,17.23
2022-09-25T20:48:53.196Z,18.05
2022-09-25T20:51:27.222Z,19.60
2022-09-25T20:54:07.006Z,20.05
2022-09-25T20:56:36.101Z,17.67
2022-09-25T20:59:04.222Z,17.65
2022-09-25T21:01:35.213Z,21.88
2022-09-25T21:04:04.065Z,19.58
2022-09-25T21:06:33.385Z,22.27
2022-09-25T21:09:03.825Z,19.33
2022-09-25T21:14:02.848Z,22.50
2022-09-25T21:16:31.753Z,21.30
2022-09-25T21:19:01.922Z,28.92
2022-09-25T21:21:29.261Z,23.67
2022-09-25T21:23:58.360Z,25.83
2022-09-25T21:26:28.354Z,25.58
2022-09-25T21:28:57.331Z,27.23
2022-09-25T21:31:27.524Z,26.00
2022-09-25T21:33:56.898Z,29.35
2022-09-25T21:36:25.622Z,28.17
2022-09-25T21:38:53.062Z,27.02
2022-09-25T21:41:22.849Z,26.63
2022-09-25T21:43:54.054Z,24.52
2022-09-25T21:46:21.638Z,27.55
2022-09-25T21:49:00.378Z,25.33
2022-09-25T21:51:30.476Z,26.63
2022-09-25T21:53:57.739Z,26.90
2022-09-25T21:56:27.579Z,28.17
2022-09-25T21:58:55.900Z,27.23
2022-09-25T22:01:26.294Z,27.42
2022-09-25T22:06:26.599Z,27.02
2022-09-25T22:08:59.695Z,23.33
2022-09-25T22:11:27.911Z,26.90
2022-09-25T22:13:57.536Z,26.55
2022-09-25T22:16:27.708Z,26.13
2022-09-25T22:18:58.347Z,28.67
2022-09-25T22:21:28.422Z,30.05
2022-09-25T22:23:56.813Z,31.90
2022-09-25T22:26:24.650Z,32.63
2022-09-25T22:28:52.192Z,32.63
2022-09-25T22:31:30.305Z,33.92
2022-09-25T22:34:05.534Z,30.95
2022-09-25T22:36:35.331Z,35.63
2022-09-25T22:39:04.369Z,34.47
2022-09-25T22:41:31.835Z,32.83
2022-09-25T22:44:00.946Z,33.83
2022-09-25T22:46:28.989Z,41.00
2022-09-25T22:48:56.414Z,32.55
2022-09-25T22:51:25.434Z,38.50
2022-09-25T22:53:54.012Z,35.67
2022-09-25T22:56:26.402Z,35.40
2022-09-25T22:58:59.671Z,42.30
2022-09-25T23:01:37.934Z,37.53
2022-09-25T23:04:11.604Z,42.92
2022-09-25T23:06:38.934Z,42.58
2022-09-25T23:09:09.215Z,38.22
2022-09-25T23:11:36.357Z,43.60
2022-09-25T23:14:07.060Z,41.45
2022-09-25T23:16:34.361Z,37.95
2022-09-25T23:19:02.084Z,40.30
2022-09-25T23:21:30.926Z,41.90
2022-09-25T23:24:02.705Z,45.08
2022-09-25T23:26:30.509Z,39.97
2022-09-25T23:29:03.839Z,45.33
2022-09-25T23:31:32.492Z,41.80
2022-09-25T23:34:03.548Z,41.40
2022-09-25T23:36:31.581Z,48.15
2022-09-25T23:39:00.320Z,45.63
2022-09-25T23:41:31.601Z,47.15
2022-09-25T23:44:00.093Z,49.78
2022-09-25T23:46:30.263Z,47.28
2022-09-25T23:48:57.848Z,45.83
2022-09-25T23:51:26.366Z,42.70
2022-09-25T23:53:56.756Z,45.70
2022-09-25T23:58:52.553Z,48.33
